createdAt,value
2024-02-13T00:00:24.940Z,99
2024-02-13T00:00:53.844Z,99
2024-02-13T00:01:23.874Z,99
2024-02-13T00:01:56.120Z,99
2024-02-13T00:02:25.870Z,99
2024-02-13T00:02:56.988Z,99
2024-02-13T00:03:27.885Z,99
2024-02-13T00:03:59.227Z,99
2024-02-13T00:04:31.670Z,99
2024-02-13T00:05:02.255Z,99
2024-02-13T00:05:32.140Z,99
2024-02-13T00:06:04.667Z,99
2024-02-13T00:06:34.241Z,99
2024-02-13T00:07:05.048Z,99
2024-02-13T00:07:36.251Z,99
2024-02-13T00:08:07.167Z,99
2024-02-13T00:08:45.316Z,99
2024-02-13T00:09:09.762Z,99
2024-02-13T00:09:44.022Z,99
2024-02-13T00:10:16.775Z,99
2024-02-13T00:10:59.458Z,99
2024-02-13T00:11:13.039Z,99
2024-02-13T00:11:43.644Z,99
2024-02-13T00:12:16.962Z,99
2024-02-13T00:12:46.543Z,99
2024-02-13T00:13:16.981Z,99
2024-02-13T00:13:48.301Z,99
2024-02-13T00:14:18.988Z,99
2024-02-13T00:14:49.953Z,99
2024-02-13T00:15:22.852Z,99
2024-02-13T00:15:52.578Z,99
2024-02-13T00:16:23.701Z,99
2024-02-13T00:17:26.272Z,99
2024-02-13T00:17:56.438Z,99
2024-02-13T00:18:27.856Z,99
2024-02-13T00:19:03.557Z,99
2024-02-13T00:19:32.374Z,99
2024-02-13T00:19:59.963Z,99
2024-02-13T00:20:31.977Z,99
2024-02-13T00:21:02.494Z,99
2024-02-13T00:21:33.021Z,99
2024-02-13T00:22:03.669Z,99
2024-02-13T00:22:35.398Z,99
2024-02-13T00:23:06.011Z,99
2024-02-13T00:23:37.628Z,99
2024-02-13T00:24:12.282Z,99
2024-02-13T00:24:38.946Z,99
2024-02-13T00:25:10.146Z,99
2024-02-13T00:25:41.484Z,99
2024-02-13T00:26:12.392Z,99
2024-02-13T00:26:43.187Z,99
2024-02-13T00:27:44.764Z,99
2024-02-13T00:28:15.959Z,99
2024-02-13T00:28:46.846Z,99
2024-02-13T00:29:18.227Z,99
2024-02-13T00:30:06.968Z,99
2024-02-13T00:30:21.359Z,99
2024-02-13T00:30:51.657Z,99
2024-02-13T00:31:23.235Z,99
2024-02-13T00:33:35.784Z,99
2024-02-13T00:34:09.002Z,99
2024-02-13T00:34:30.357Z,99
2024-02-13T00:35:02.124Z,99
2024-02-13T00:35:30.061Z,99
2024-02-13T00:36:02.057Z,99
2024-02-13T00:36:32.325Z,99
2024-02-13T00:37:03.435Z,99
2024-02-13T00:37:34.606Z,99
2024-02-13T00:38:06.010Z,99
2024-02-13T00:38:36.241Z,99
2024-02-13T00:39:07.748Z,99
2024-02-13T00:39:38.022Z,99
2024-02-13T00:40:10.838Z,99
2024-02-13T00:40:40.519Z,99
2024-02-13T00:41:11.932Z,99
2024-02-13T00:41:41.957Z,99
2024-02-13T00:42:13.209Z,99
2024-02-13T00:42:44.281Z,99
2024-02-13T00:43:15.128Z,99
2024-02-13T00:43:46.442Z,99
2024-02-13T00:44:50.048Z,99
2024-02-13T00:45:19.523Z,99
2024-02-13T00:45:50.262Z,99
2024-02-13T00:46:21.456Z,99
2024-02-13T00:46:52.047Z,99
2024-02-13T00:47:34.438Z,99
2024-02-13T00:47:54.908Z,99
2024-02-13T00:48:25.848Z,99
2024-02-13T00:48:56.263Z,99
2024-02-13T00:49:27.221Z,99
2024-02-13T00:49:58.565Z,99
2024-02-13T00:50:29.343Z,99
2024-02-13T00:51:00.831Z,99
2024-02-13T00:51:34.226Z,99
2024-02-13T00:52:33.088Z,99
2024-02-13T00:53:04.467Z,99
2024-02-13T00:53:35.838Z,99
2024-02-13T00:54:06.339Z,99
2024-02-13T00:54:45.153Z,99
2024-02-13T00:55:08.502Z,99
2024-02-13T00:55:39.114Z,99
2024-02-13T00:56:10.621Z,99
2024-02-13T00:56:41.157Z,99
2024-02-13T00:57:12.820Z,99
2024-02-13T00:57:43.633Z,99
2024-02-13T00:58:14.726Z,99
2024-02-13T00:58:46.156Z,99
2024-02-13T00:59:17.001Z,99
2024-02-13T00:59:47.141Z,99
2024-02-13T01:00:36.431Z,99
2024-02-13T01:01:42.701Z,99
2024-02-13T01:01:55.925Z,99
2024-02-13T01:02:25.680Z,99
2024-02-13T01:02:53.724Z,99
2024-02-13T01:03:26.080Z,99
2024-02-13T01:04:33.793Z,99
2024-02-13T01:05:13.258Z,99
2024-02-13T01:05:47.403Z,99
2024-02-13T01:06:05.651Z,99
2024-02-13T01:06:31.313Z,99
2024-02-13T01:07:05.900Z,99
2024-02-13T01:07:38.846Z,99
2024-02-13T01:08:04.149Z,99
2024-02-13T01:08:35.979Z,99
2024-02-13T01:09:25.568Z,99
2024-02-13T01:09:45.578Z,99
2024-02-13T01:10:12.717Z,99
2024-02-13T01:11:35.520Z,99
2024-02-13T01:11:42.398Z,99
2024-02-13T01:12:16.359Z,99
2024-02-13T01:12:44.544Z,99
2024-02-13T01:13:17.960Z,99
2024-02-13T01:13:45.418Z,99
2024-02-13T01:14:16.441Z,99
2024-02-13T01:14:48.694Z,99
2024-02-13T01:15:29.382Z,99
2024-02-13T01:15:48.630Z,99
2024-02-13T01:16:44.661Z,99
2024-02-13T01:16:53.713Z,99
2024-02-13T01:17:33.068Z,99
2024-02-13T01:17:52.606Z,99
2024-02-13T01:18:23.983Z,99
2024-02-13T01:18:55.770Z,99
2024-02-13T01:19:27.144Z,99
2024-02-13T01:19:57.236Z,99
2024-02-13T01:20:28.505Z,99
2024-02-13T01:20:58.580Z,99
2024-02-13T01:21:29.874Z,99
2024-02-13T01:22:10.418Z,99
2024-02-13T01:22:31.536Z,99
2024-02-13T01:23:03.013Z,99
2024-02-13T01:24:05.062Z,99
2024-02-13T01:24:36.668Z,99
2024-02-13T01:25:08.465Z,99
2024-02-13T01:25:37.779Z,99
2024-02-13T01:26:09.147Z,99
2024-02-13T01:26:39.753Z,99
2024-02-13T01:27:11.502Z,99
2024-02-13T01:27:41.658Z,99
2024-02-13T01:28:12.567Z,99
2024-02-13T01:28:43.082Z,99
2024-02-13T01:29:14.443Z,99
2024-02-13T01:29:45.966Z,99
2024-02-13T01:30:18.686Z,99
2024-02-13T01:30:48.186Z,99
2024-02-13T01:31:18.936Z,99
2024-02-13T01:31:51.261Z,99
2024-02-13T01:32:21.652Z,99
2024-02-13T01:32:54.155Z,99
2024-02-13T01:33:23.424Z,99
2024-02-13T01:33:53.681Z,99
2024-02-13T01:34:25.825Z,99
2024-02-13T01:34:55.868Z,99
2024-02-13T01:35:33.002Z,99
2024-02-13T01:36:02.217Z,99
2024-02-13T01:36:28.418Z,99
2024-02-13T01:37:00.549Z,99
2024-02-13T01:37:31.100Z,99
2024-02-13T01:38:01.978Z,99
2024-02-13T01:38:33.278Z,99
2024-02-13T01:39:04.633Z,99
2024-02-13T01:39:34.998Z,99
2024-02-13T01:40:06.656Z,99
2024-02-13T01:40:36.651Z,99
2024-02-13T01:41:11.061Z,99
2024-02-13T01:41:42.112Z,99
2024-02-13T01:42:11.486Z,99
2024-02-13T01:42:41.559Z,99
2024-02-13T01:43:12.131Z,99
2024-02-13T01:43:42.966Z,99
2024-02-13T01:44:14.931Z,99
2024-02-13T01:44:45.902Z,99
2024-02-13T01:45:18.542Z,99
2024-02-13T01:45:49.145Z,99
2024-02-13T01:46:18.711Z,99
2024-02-13T01:46:49.152Z,99
2024-02-13T01:47:51.650Z,99
2024-02-13T01:48:21.817Z,99
2024-02-13T01:48:53.236Z,99
2024-02-13T01:49:24.802Z,99
2024-02-13T01:49:54.803Z,99
2024-02-13T01:50:26.565Z,99
2024-02-13T01:50:56.388Z,99
2024-02-13T01:51:28.319Z,99
2024-02-13T01:51:58.678Z,99
2024-02-13T01:52:29.744Z,99
2024-02-13T01:53:00.544Z,99
2024-02-13T01:53:31.659Z,99
2024-02-13T01:54:38.531Z,99
2024-02-13T01:55:06.953Z,99
2024-02-13T01:55:36.988Z,99
2024-02-13T01:56:06.784Z,99
2024-02-13T01:56:37.805Z,99
2024-02-13T01:57:08.342Z,99
2024-02-13T01:57:39.454Z,99
2024-02-13T01:58:10.581Z,99
2024-02-13T01:58:42.513Z,99
2024-02-13T01:59:49.003Z,99
2024-02-13T02:00:09.704Z,99
2024-02-13T02:00:21.252Z,99
2024-02-13T02:00:46.412Z,99
2024-02-13T02:01:17.761Z,99
2024-02-13T02:02:06.779Z,99
2024-02-13T02:02:18.854Z,99
2024-02-13T02:03:07.337Z,99
2024-02-13T02:03:21.214Z,99
2024-02-13T02:03:52.986Z,99
2024-02-13T02:04:22.622Z,99
2024-02-13T02:04:53.938Z,99
2024-02-13T02:05:26.459Z,99
2024-02-13T02:05:58.243Z,99
2024-02-13T02:06:27.606Z,99
2024-02-13T02:06:57.932Z,99
2024-02-13T02:07:47.176Z,99
2024-02-13T02:08:00.473Z,99
2024-02-13T02:08:30.994Z,99
2024-02-13T02:09:01.723Z,99
2024-02-13T02:09:33.124Z,99
2024-02-13T02:10:06.966Z,99
2024-02-13T02:10:35.945Z,99
2024-02-13T02:11:06.574Z,99
2024-02-13T02:11:37.623Z,99
2024-02-13T02:12:08.492Z,99
2024-02-13T02:12:38.848Z,99
2024-02-13T02:13:09.388Z,99
2024-02-13T02:13:40.517Z,99
2024-02-13T02:14:11.559Z,99
2024-02-13T02:14:43.704Z,99
2024-02-13T02:15:16.123Z,99
2024-02-13T02:15:45.022Z,99
2024-02-13T02:16:16.873Z,99
2024-02-13T02:16:48.342Z,99
2024-02-13T02:17:18.233Z,99
2024-02-13T02:17:48.926Z,99
2024-02-13T02:18:19.556Z,99
2024-02-13T02:18:51.830Z,99
2024-02-13T02:19:22.145Z,99
2024-02-13T02:20:17.126Z,99
2024-02-13T02:20:24.273Z,99
2024-02-13T02:20:54.730Z,99
2024-02-13T02:21:27.300Z,99
2024-02-13T02:21:58.397Z,99
2024-02-13T02:22:28.429Z,99
2024-02-13T02:22:58.822Z,99
2024-02-13T02:23:30.003Z,99
2024-02-13T02:24:01.505Z,99
2024-02-13T02:24:33.024Z,99
2024-02-13T02:25:03.745Z,99
2024-02-13T02:25:33.561Z,99
2024-02-13T02:26:06.136Z,99
2024-02-13T02:26:36.301Z,99
2024-02-13T02:27:07.326Z,99
2024-02-13T02:27:38.134Z,99
2024-02-13T02:28:08.997Z,99
2024-02-13T02:28:39.842Z,99
2024-02-13T02:29:10.761Z,99
2024-02-13T02:29:41.607Z,99
2024-02-13T02:35:59.846Z,99
2024-02-13T02:36:26.685Z,99
2024-02-13T02:36:56.253Z,99
2024-02-13T02:37:27.475Z,99
2024-02-13T02:37:58.314Z,99
2024-02-13T02:38:29.352Z,99
2024-02-13T02:39:33.904Z,99
2024-02-13T02:40:02.054Z,99
2024-02-13T02:40:35.052Z,99
2024-02-13T02:41:35.088Z,99
2024-02-13T02:42:05.268Z,99
2024-02-13T02:42:36.710Z,99
2024-02-13T02:43:08.675Z,99
2024-02-13T02:43:39.416Z,99
2024-02-13T02:44:09.734Z,99
2024-02-13T02:44:40.789Z,99
2024-02-13T02:45:11.921Z,99
2024-02-13T02:45:43.582Z,99
2024-02-13T02:46:14.674Z,99
2024-02-13T02:46:45.622Z,99
2024-02-13T02:47:15.449Z,99
2024-02-13T02:47:46.576Z,99
2024-02-13T02:48:18.502Z,99
2024-02-13T02:48:49.088Z,99
2024-02-13T02:49:19.981Z,99
2024-02-13T02:49:51.895Z,99
2024-02-13T02:50:21.632Z,99
2024-02-13T02:50:52.998Z,99
2024-02-13T02:51:23.220Z,99
2024-02-13T02:52:12.456Z,99
2024-02-13T02:52:25.786Z,99
2024-02-13T02:52:56.566Z,99
2024-02-13T02:53:28.066Z,99
2024-02-13T02:53:59.394Z,99
2024-02-13T02:54:29.997Z,99
2024-02-13T02:55:00.388Z,99
2024-02-13T02:55:31.943Z,99
2024-02-13T02:56:02.924Z,99
2024-02-13T02:56:33.627Z,99
2024-02-13T02:57:05.357Z,99
2024-02-13T02:57:35.699Z,99
2024-02-13T02:58:07.038Z,99
2024-02-13T02:58:44.999Z,99
2024-02-13T02:59:09.815Z,99
2024-02-13T02:59:40.282Z,99
2024-02-13T03:00:12.494Z,99
2024-02-13T03:00:42.499Z,99
2024-02-13T03:01:15.208Z,99
2024-02-13T03:01:51.954Z,99
2024-02-13T03:02:15.186Z,99
2024-02-13T03:02:50.271Z,99
2024-02-13T03:03:18.158Z,99
2024-02-13T03:03:48.767Z,99
2024-02-13T03:04:19.428Z,99
2024-02-13T03:04:49.772Z,99
2024-02-13T03:05:21.509Z,99
2024-02-13T03:05:52.499Z,99
2024-02-13T03:06:27.402Z,99
2024-02-13T03:06:54.031Z,99
2024-02-13T03:07:26.335Z,99
2024-02-13T03:07:57.412Z,99
2024-02-13T03:08:29.153Z,99
2024-02-13T03:08:59.003Z,99
2024-02-13T03:09:30.032Z,99
2024-02-13T03:10:01.833Z,99
2024-02-13T03:10:33.697Z,99
2024-02-13T03:11:03.603Z,99
2024-02-13T03:11:33.683Z,99
2024-02-13T03:12:05.182Z,99
2024-02-13T03:12:50.653Z,99
2024-02-13T03:13:11.481Z,99
2024-02-13T03:13:37.406Z,99
2024-02-13T03:14:09.310Z,99
2024-02-13T03:14:39.183Z,99
2024-02-13T03:15:11.541Z,99
2024-02-13T03:15:41.199Z,99
2024-02-13T03:16:12.336Z,99
2024-02-13T03:16:42.975Z,99
2024-02-13T03:17:14.726Z,99
2024-02-13T03:17:47.367Z,99
2024-02-13T03:18:17.228Z,99
2024-02-13T03:18:48.463Z,99
2024-02-13T03:19:20.544Z,99
2024-02-13T03:19:50.096Z,99
2024-02-13T03:20:20.833Z,99
2024-02-13T03:20:51.820Z,99
2024-02-13T03:21:22.530Z,99
2024-02-13T03:21:52.928Z,99
2024-02-13T03:22:25.064Z,99
2024-02-13T03:22:54.954Z,99
2024-02-13T03:23:25.778Z,99
2024-02-13T03:23:56.696Z,99
2024-02-13T03:24:28.455Z,99
2024-02-13T03:25:01.988Z,99
2024-02-13T03:25:30.977Z,99
2024-02-13T03:26:02.116Z,99
2024-02-13T03:26:32.643Z,99
2024-02-13T03:27:03.010Z,99
2024-02-13T03:27:33.805Z,99
2024-02-13T03:28:04.910Z,99
2024-02-13T03:28:37.287Z,99
2024-02-13T03:29:07.092Z,99
2024-02-13T03:29:38.379Z,99
2024-02-13T03:30:12.986Z,99
2024-02-13T03:30:40.276Z,99
2024-02-13T03:31:11.736Z,99
2024-02-13T03:31:41.835Z,99
2024-02-13T03:32:13.610Z,99
2024-02-13T03:32:44.159Z,99
2024-02-13T03:33:16.131Z,99
2024-02-13T03:33:46.854Z,99
2024-02-13T03:34:17.680Z,99
2024-02-13T03:35:19.828Z,99
2024-02-13T03:35:50.500Z,99
2024-02-13T03:36:21.639Z,99
2024-02-13T03:37:10.619Z,99
2024-02-13T03:37:23.110Z,99
2024-02-13T03:37:54.097Z,99
2024-02-13T03:38:25.307Z,99
2024-02-13T03:38:56.164Z,99
2024-02-13T03:39:26.848Z,99
2024-02-13T03:39:58.555Z,99
2024-02-13T03:40:29.793Z,99
2024-02-13T03:41:00.038Z,99
2024-02-13T03:41:31.489Z,99
2024-02-13T03:42:02.146Z,99
2024-02-13T03:42:33.648Z,99
2024-02-13T03:43:04.241Z,99
2024-02-13T03:43:34.867Z,99
2024-02-13T03:44:06.531Z,99
2024-02-13T03:44:37.449Z,99
2024-02-13T03:45:10.159Z,99
2024-02-13T03:45:39.389Z,99
2024-02-13T03:46:10.801Z,99
2024-02-13T03:46:42.887Z,99
2024-02-13T03:47:12.506Z,99
2024-02-13T03:47:43.141Z,99
2024-02-13T03:48:14.384Z,99
2024-02-13T03:48:45.225Z,99
2024-02-13T03:49:16.907Z,99
2024-02-13T03:49:47.089Z,99
2024-02-13T03:50:19.661Z,99
2024-02-13T03:50:49.509Z,99
2024-02-13T03:51:20.089Z,99
2024-02-13T03:51:51.622Z,99
2024-02-13T03:52:21.990Z,99
2024-02-13T03:52:53.485Z,99
2024-02-13T03:53:39.762Z,99
2024-02-13T03:53:55.538Z,99
2024-02-13T03:54:25.756Z,99
2024-02-13T03:54:57.090Z,99
2024-02-13T03:55:28.614Z,99
2024-02-13T03:55:59.598Z,99
2024-02-13T03:56:31.248Z,99
2024-02-13T03:57:01.610Z,99
2024-02-13T03:57:32.126Z,99
2024-02-13T03:58:04.639Z,99
2024-02-13T03:58:34.275Z,99
2024-02-13T03:59:05.363Z,99
2024-02-13T03:59:36.088Z,99
2024-02-13T04:00:10.336Z,99
2024-02-13T04:00:39.499Z,99
2024-02-13T04:01:09.741Z,99
2024-02-13T04:01:40.666Z,99
2024-02-13T04:02:11.103Z,99
2024-02-13T04:02:42.463Z,99
2024-02-13T04:03:25.082Z,99
2024-02-13T04:03:43.886Z,99
2024-02-13T04:04:22.801Z,99
2024-02-13T04:04:47.040Z,99
2024-02-13T04:05:41.306Z,99
2024-02-13T04:05:48.639Z,99
2024-02-13T04:06:19.493Z,99
2024-02-13T04:06:50.644Z,99
2024-02-13T04:07:21.886Z,99
2024-02-13T04:07:52.749Z,99
2024-02-13T04:08:23.553Z,99
2024-02-13T04:08:55.098Z,99
2024-02-13T04:09:26.377Z,99
2024-02-13T04:09:56.725Z,99
2024-02-13T04:10:27.541Z,99
2024-02-13T04:10:58.274Z,99
2024-02-13T04:11:31.776Z,99
2024-02-13T04:12:01.347Z,99
2024-02-13T04:12:32.010Z,99
2024-02-13T04:13:02.666Z,99
2024-02-13T04:13:33.874Z,99
2024-02-13T04:14:04.593Z,99
2024-02-13T04:14:35.263Z,99
2024-02-13T04:15:07.188Z,99
2024-02-13T04:15:37.279Z,99
2024-02-13T04:16:08.827Z,99
2024-02-13T04:16:39.194Z,99
2024-02-13T04:17:11.032Z,99
2024-02-13T04:17:41.644Z,99
2024-02-13T04:18:13.041Z,99
2024-02-13T04:18:43.233Z,99
2024-02-13T04:19:14.238Z,99
2024-02-13T04:19:45.048Z,99
2024-02-13T04:20:17.346Z,99
2024-02-13T04:20:48.128Z,99
2024-02-13T04:21:18.318Z,99
2024-02-13T04:21:50.258Z,99
2024-02-13T04:22:20.983Z,99
2024-02-13T04:22:51.993Z,99
2024-02-13T04:23:22.224Z,99
2024-02-13T04:23:53.014Z,99
2024-02-13T04:24:23.852Z,99
2024-02-13T04:24:55.149Z,99
2024-02-13T04:25:37.232Z,99
2024-02-13T04:25:57.300Z,99
2024-02-13T04:26:36.319Z,99
2024-02-13T04:26:59.332Z,99
2024-02-13T04:27:31.037Z,99
2024-02-13T04:28:01.765Z,99
2024-02-13T04:29:03.117Z,99
2024-02-13T04:29:34.553Z,99
2024-02-13T04:30:08.066Z,99
2024-02-13T04:30:37.413Z,99
2024-02-13T04:31:07.969Z,99
2024-02-13T04:31:38.265Z,99
2024-02-13T04:32:10.344Z,99
2024-02-13T04:32:41.065Z,99
2024-02-13T04:33:11.840Z,99
2024-02-13T04:33:42.778Z,99
2024-02-13T04:34:13.845Z,99
2024-02-13T04:34:44.396Z,99
2024-02-13T04:35:15.366Z,99
2024-02-13T04:35:46.257Z,99
2024-02-13T04:36:17.763Z,99
2024-02-13T04:36:48.075Z,99
2024-02-13T04:37:19.554Z,99
2024-02-13T04:37:50.589Z,99
2024-02-13T04:38:22.192Z,99
2024-02-13T04:38:52.329Z,99
2024-02-13T04:39:23.148Z,99
2024-02-13T04:39:53.902Z,99
2024-02-13T04:40:25.186Z,99
2024-02-13T04:40:56.168Z,99
2024-02-13T04:41:27.429Z,99
2024-02-13T04:41:57.840Z,99
2024-02-13T04:42:30.461Z,99
2024-02-13T04:43:00.666Z,99
2024-02-13T04:43:31.458Z,99
2024-02-13T04:44:02.230Z,99
2024-02-13T04:44:34.184Z,99
2024-02-13T04:45:04.373Z,99
2024-02-13T04:45:36.162Z,99
2024-02-13T04:46:06.781Z,99
2024-02-13T04:46:37.473Z,99
2024-02-13T04:47:09.021Z,99
2024-02-13T04:47:43.098Z,99
2024-02-13T04:48:10.931Z,99
2024-02-13T04:48:42.561Z,99
2024-02-13T04:49:12.436Z,99
2024-02-13T04:49:43.185Z,99
2024-02-13T04:50:17.582Z,99
2024-02-13T04:50:46.280Z,99
2024-02-13T04:51:15.794Z,99
2024-02-13T04:51:47.252Z,99
2024-02-13T04:52:19.694Z,99
2024-02-13T04:52:49.228Z,99
2024-02-13T04:53:38.771Z,99
2024-02-13T04:53:52.575Z,99
2024-02-13T04:54:22.680Z,99
2024-02-13T04:54:53.423Z,99
2024-02-13T04:55:24.495Z,99
2024-02-13T04:55:55.566Z,99
2024-02-13T04:56:26.162Z,99
2024-02-13T04:56:57.230Z,99
2024-02-13T04:57:28.058Z,99
2024-02-13T04:57:59.246Z,99
2024-02-13T04:58:30.835Z,99
2024-02-13T04:59:01.315Z,99
2024-02-13T04:59:32.202Z,99
2024-02-13T05:00:04.319Z,99
2024-02-13T05:00:35.427Z,99
2024-02-13T05:01:05.234Z,99
2024-02-13T05:01:35.970Z,99
2024-02-13T05:02:24.519Z,99
2024-02-13T05:02:38.276Z,99
2024-02-13T05:03:10.158Z,99
2024-02-13T05:03:40.238Z,99
2024-02-13T05:04:10.961Z,99
2024-02-13T05:04:42.124Z,99
2024-02-13T05:05:13.581Z,99
2024-02-13T05:05:44.510Z,99
2024-02-13T05:06:15.315Z,99
2024-02-13T05:06:51.685Z,99
2024-02-13T05:07:17.551Z,99
2024-02-13T05:08:19.388Z,99
2024-02-13T05:08:50.342Z,99
2024-02-13T05:09:22.730Z,99
2024-02-13T05:09:53.247Z,99
2024-02-13T05:10:23.632Z,99
2024-02-13T05:10:54.021Z,99
2024-02-13T05:11:25.153Z,99
2024-02-13T05:11:56.349Z,99
2024-02-13T05:12:27.387Z,99
2024-02-13T05:12:59.288Z,99
2024-02-13T05:13:29.473Z,99
2024-02-13T05:14:00.884Z,99
2024-02-13T05:14:31.387Z,99
2024-02-13T05:15:02.872Z,99
2024-02-13T05:15:33.482Z,99
2024-02-13T05:16:04.000Z,99
2024-02-13T05:16:35.111Z,99
2024-02-13T05:17:06.309Z,99
2024-02-13T05:17:37.364Z,99
2024-02-13T05:18:08.392Z,99
2024-02-13T05:18:39.837Z,99
2024-02-13T05:19:10.215Z,99
2024-02-13T05:19:41.118Z,99
2024-02-13T05:20:12.852Z,99
2024-02-13T05:20:43.725Z,99
2024-02-13T05:21:14.198Z,99
2024-02-13T05:21:45.172Z,99
2024-02-13T05:22:15.944Z,99
2024-02-13T09:13:02.569Z,91
2024-02-13T09:14:01.124Z,91
2024-02-13T09:16:21.579Z,91
2024-02-13T09:17:03.619Z,92
2024-02-13T09:18:06.801Z,92
2024-02-13T09:18:14.406Z,91
2024-02-13T09:18:41.016Z,91
2024-02-13T09:19:13.171Z,92
2024-02-13T09:19:43.509Z,92
2024-02-13T09:20:17.398Z,92
2024-02-13T09:20:44.333Z,92
2024-02-13T09:21:15.751Z,92
2024-02-13T09:21:53.624Z,92
2024-02-13T09:22:17.803Z,92
2024-02-13T09:22:48.582Z,90
2024-02-13T09:23:20.583Z,91
2024-02-13T09:23:52.028Z,92
2024-02-13T09:24:22.538Z,91
2024-02-13T09:24:56.067Z,91
2024-02-13T09:25:28.988Z,91
2024-02-13T09:25:56.210Z,92
2024-02-13T09:26:27.615Z,92
2024-02-13T09:26:57.492Z,92
2024-02-13T09:27:27.625Z,92
2024-02-13T09:27:58.542Z,91
2024-02-13T09:28:31.990Z,92
2024-02-13T09:29:02.658Z,92
2024-02-13T09:29:32.768Z,92
2024-02-13T09:30:21.580Z,92
2024-02-13T09:30:37.550Z,92
2024-02-13T09:31:04.309Z,91
2024-02-13T09:31:36.231Z,92
2024-02-13T09:32:07.053Z,91
2024-02-13T09:32:38.358Z,90
2024-02-13T09:33:08.559Z,90
2024-02-13T09:33:44.941Z,90
2024-02-13T09:34:11.739Z,89
2024-02-13T09:34:42.938Z,89
2024-02-13T09:35:14.560Z,90
2024-02-13T09:35:44.600Z,89
2024-02-13T09:36:14.819Z,90
2024-02-13T09:36:46.480Z,90
2024-02-13T09:37:17.270Z,89
2024-02-13T09:37:47.507Z,89
2024-02-13T09:38:19.272Z,90
2024-02-13T09:38:49.755Z,90
2024-02-13T09:39:21.978Z,89
2024-02-13T09:39:52.111Z,88
2024-02-13T09:40:27.342Z,89
2024-02-13T09:40:53.601Z,89
2024-02-13T09:41:25.929Z,90
2024-02-13T09:41:56.013Z,89
2024-02-13T09:42:27.609Z,88
2024-02-13T09:42:57.429Z,88
2024-02-13T09:43:28.706Z,89
2024-02-13T09:44:00.008Z,88
2024-02-13T09:44:31.111Z,89
2024-02-13T09:45:39.016Z,89
2024-02-13T09:46:05.164Z,89
2024-02-13T09:46:35.025Z,89
2024-02-13T09:47:05.268Z,90
2024-02-13T09:47:46.728Z,89
2024-02-13T09:48:08.746Z,89
2024-02-13T09:48:39.033Z,88
2024-02-13T09:49:10.300Z,89
2024-02-13T09:49:44.268Z,89
2024-02-13T09:50:12.172Z,88
2024-02-13T09:50:44.164Z,88
2024-02-13T09:51:13.926Z,88
2024-02-13T09:51:44.330Z,87
2024-02-13T09:52:46.538Z,87
2024-02-13T09:53:18.998Z,88
2024-02-13T09:53:56.950Z,88
2024-02-13T09:54:19.762Z,88
2024-02-13T09:54:51.686Z,88
2024-02-13T09:55:22.506Z,88
2024-02-13T09:55:53.158Z,88
2024-02-13T09:56:24.489Z,88
2024-02-13T09:56:55.001Z,88
2024-02-13T09:57:26.206Z,87
2024-02-13T09:57:56.706Z,88
2024-02-13T09:58:27.942Z,88
2024-02-13T09:58:59.520Z,89
2024-02-13T09:59:30.166Z,90
2024-02-13T10:00:01.598Z,90
2024-02-13T10:00:32.892Z,87
2024-02-13T10:01:03.326Z,88
2024-02-13T10:01:34.009Z,87
2024-02-13T10:02:04.769Z,88
2024-02-13T10:02:35.534Z,88
2024-02-13T10:03:06.952Z,88
2024-02-13T10:03:38.201Z,86
2024-02-13T10:04:09.488Z,87
2024-02-13T10:05:11.147Z,87
2024-02-13T10:05:43.090Z,85
2024-02-13T10:06:13.989Z,87
2024-02-13T10:06:44.472Z,86
2024-02-13T10:07:14.819Z,86
2024-02-13T10:07:45.629Z,86
2024-02-13T10:08:17.249Z,86
2024-02-13T10:08:47.971Z,85
2024-02-13T10:09:19.763Z,85
2024-02-13T10:09:49.293Z,85
2024-02-13T10:10:29.523Z,85
2024-02-13T10:10:52.526Z,85
2024-02-13T10:11:23.330Z,84
2024-02-13T10:11:53.769Z,84
2024-02-13T10:12:24.746Z,87
2024-02-13T10:12:56.354Z,87
2024-02-13T10:13:26.281Z,85
2024-02-13T10:13:58.926Z,84
2024-02-13T10:14:28.608Z,84
2024-02-13T10:15:00.915Z,82
2024-02-13T10:15:31.753Z,82
2024-02-13T10:16:01.768Z,84
2024-02-13T10:16:32.842Z,84
2024-02-13T10:17:04.157Z,82
2024-02-13T10:17:35.350Z,82
2024-02-13T10:18:05.678Z,85
2024-02-13T10:18:36.647Z,86
2024-02-13T10:19:07.611Z,83
2024-02-13T10:19:38.835Z,84
2024-02-13T10:20:10.350Z,86
2024-02-13T10:20:40.795Z,83
2024-02-13T10:21:12.180Z,84
2024-02-13T10:21:43.384Z,84
2024-02-13T10:22:14.211Z,84
2024-02-13T10:22:44.680Z,84
2024-02-13T10:23:16.554Z,85
2024-02-13T10:23:47.367Z,85
2024-02-13T10:24:36.307Z,84
2024-02-13T10:24:49.747Z,84
2024-02-13T10:25:21.799Z,84
2024-02-13T10:25:50.743Z,84
2024-02-13T10:26:22.535Z,82
2024-02-13T10:26:53.360Z,83
2024-02-13T10:27:23.576Z,82
2024-02-13T10:27:54.957Z,83
2024-02-13T10:28:26.125Z,83
2024-02-13T10:28:58.057Z,85
2024-02-13T10:29:27.706Z,84
2024-02-13T10:29:59.258Z,83
2024-02-13T10:30:30.833Z,85
2024-02-13T10:31:01.857Z,85
2024-02-13T10:31:32.822Z,85
2024-02-13T10:32:03.803Z,85
2024-02-13T10:32:51.597Z,86
2024-02-13T10:33:05.355Z,86
2024-02-13T10:33:37.076Z,85
2024-02-13T10:34:07.019Z,86
2024-02-13T10:34:38.129Z,86
2024-02-13T10:35:41.092Z,84
2024-02-13T10:36:11.558Z,85
2024-02-13T10:36:42.635Z,85
2024-02-13T10:37:16.396Z,86
2024-02-13T10:37:44.511Z,84
2024-02-13T10:38:14.764Z,84
2024-02-13T10:38:45.965Z,85
2024-02-13T10:39:16.829Z,86
2024-02-13T10:39:48.042Z,85
2024-02-13T10:40:20.334Z,85
2024-02-13T10:40:49.523Z,85
2024-02-13T10:41:26.352Z,86
2024-02-13T10:41:56.060Z,86
2024-02-13T10:42:23.131Z,85
2024-02-13T10:42:54.675Z,85
2024-02-13T10:43:24.814Z,84
2024-02-13T10:43:55.759Z,85
2024-02-13T10:44:28.122Z,86
2024-02-13T10:44:57.851Z,86
2024-02-13T10:45:30.669Z,86
2024-02-13T10:45:59.804Z,87
2024-02-13T10:46:31.005Z,85
2024-02-13T10:47:01.765Z,85
2024-02-13T10:47:33.158Z,87
2024-02-13T10:48:04.890Z,88
2024-02-13T10:48:35.891Z,87
2024-02-13T10:49:05.953Z,87
2024-02-13T10:49:38.269Z,87
2024-02-13T10:50:10.003Z,87
2024-02-13T10:50:39.346Z,87
2024-02-13T10:51:10.349Z,86
2024-02-13T10:51:41.143Z,87
2024-02-13T10:52:13.354Z,86
2024-02-13T10:52:44.983Z,86
2024-02-13T10:53:15.988Z,86
2024-02-13T10:53:46.160Z,85
2024-02-13T10:54:16.512Z,86
2024-02-13T10:54:47.912Z,86
2024-02-13T10:55:18.807Z,87
2024-02-13T10:55:50.254Z,86
2024-02-13T10:56:21.800Z,87
2024-02-13T10:56:52.032Z,86
2024-02-13T10:57:23.846Z,86
2024-02-13T10:57:54.731Z,86
2024-02-13T10:58:31.919Z,86
2024-02-13T10:58:56.239Z,87
2024-02-13T10:59:27.221Z,86
2024-02-13T10:59:57.559Z,87
2024-02-13T11:00:32.067Z,86
2024-02-13T11:01:05.450Z,85
2024-02-13T11:01:30.633Z,85
2024-02-13T11:02:05.756Z,85
2024-02-13T11:02:32.495Z,85
2024-02-13T11:03:03.368Z,85
2024-02-13T11:03:35.077Z,85
2024-02-13T11:04:09.547Z,85
2024-02-13T11:04:36.251Z,85
2024-02-13T11:05:09.283Z,85
2024-02-13T11:05:38.758Z,86
2024-02-13T11:06:09.530Z,85
2024-02-13T11:06:40.723Z,86
2024-02-13T11:07:20.084Z,85
2024-02-13T11:07:44.000Z,85
2024-02-13T11:08:13.412Z,85
2024-02-13T11:08:44.380Z,85
2024-02-13T11:09:15.473Z,85
2024-02-13T11:09:45.926Z,85
2024-02-13T11:10:17.454Z,86
2024-02-13T11:10:48.412Z,85
2024-02-13T11:11:18.932Z,86
2024-02-13T11:11:50.752Z,86
2024-02-13T11:12:21.879Z,86
2024-02-13T11:12:52.541Z,86
2024-02-13T11:13:27.803Z,87
2024-02-13T11:13:54.440Z,86
2024-02-13T11:14:24.968Z,85
2024-02-13T11:14:55.729Z,86
2024-02-13T11:15:27.240Z,85
2024-02-13T11:15:58.821Z,84
2024-02-13T11:16:30.616Z,84
2024-02-13T11:17:01.238Z,84
2024-02-13T11:17:31.281Z,84
2024-02-13T11:18:02.610Z,84
2024-02-13T11:18:33.982Z,84
2024-02-13T11:19:04.832Z,84
2024-02-13T11:19:35.776Z,84
2024-02-13T11:20:07.612Z,84
2024-02-13T11:20:37.189Z,84
2024-02-13T11:21:08.138Z,84
2024-02-13T11:21:39.727Z,84
2024-02-13T11:22:10.717Z,83
2024-02-13T11:22:41.238Z,84
2024-02-13T11:23:12.946Z,84
2024-02-13T11:23:43.340Z,84
2024-02-13T11:24:14.566Z,84
2024-02-13T11:24:45.120Z,84
2024-02-13T11:25:16.787Z,83
2024-02-13T11:26:18.011Z,83
2024-02-13T11:26:49.483Z,85
2024-02-13T11:27:27.711Z,82
2024-02-13T11:27:51.093Z,83
2024-02-13T11:28:23.324Z,83
2024-02-13T11:28:54.258Z,81
2024-02-13T11:29:24.171Z,84
2024-02-13T11:29:55.373Z,81
2024-02-13T11:30:27.067Z,82
2024-02-13T11:30:57.008Z,82
2024-02-13T11:31:28.402Z,83
2024-02-13T11:32:00.364Z,83
2024-02-13T11:32:31.220Z,83